Time;durP1;ratioP1;P1;durP2;ratioP2;P2;SDS_P1;SDS_P2;PMS_P1;PMS_P2;Temp;Humidity;BMP_temperature;BMP_pressure;BME280_temperature;BME280_humidity;BME280_pressure;Samples;Min_cycle;Max_cycle;Signal;HPM_P1;HPM_P2
2023/02/20 00:00:04;;;;;;;;;51.50;42.25;;;;;;;;4960698;28;46189;-53
2023/02/20 00:02:30;;;;;;;;;22.50;18.25;;;;;;;;4960925;28;45426;-53
2023/02/20 00:04:56;;;;;;;;;52.50;43.00;;;;;;;;4960952;28;45342;-53
2023/02/20 00:07:21;;;;;;;;;48.00;40.50;;;;;;;;4960806;28;45397;-52
2023/02/20 00:09:46;;;;;;;;;52.00;43.00;;;;;;;;4960621;28;45960;-54
2023/02/20 00:12:11;;;;;;;;;48.75;40.75;;;;;;;;4960533;28;45406;-52
2023/02/20 00:14:36;;;;;;;;;49.25;38.50;;;;;;;;4960869;28;45381;-53
2023/02/20 00:17:02;;;;;;;;;53.00;38.50;;;;;;;;4960570;28;45677;-53
2023/02/20 00:19:27;;;;;;;;;49.25;37.75;;;;;;;;4960054;28;45457;-53
2023/02/20 00:21:53;;;;;;;;;47.75;39.50;;;;;;;;4960237;28;45349;-53
2023/02/20 00:24:18;;;;;;;;;49.25;38.75;;;;;;;;4959571;28;45428;-52
2023/02/20 00:26:47;;;;;;;;;55.50;42.50;;;;;;;;4960853;28;45231;-54
2023/02/20 00:29:14;;;;;;;;;52.50;41.75;;;;;;;;4960403;28;45420;-52
2023/02/20 00:31:39;;;;;;;;;52.00;41.75;;;;;;;;4959980;28;45490;-53
2023/02/20 00:34:04;;;;;;;;;49.50;40.25;;;;;;;;4959739;28;45480;-50
2023/02/20 00:36:29;;;;;;;;;46.00;39.50;;;;;;;;4960401;28;45441;-49
2023/02/20 00:38:54;;;;;;;;;51.25;38.75;;;;;;;;4960119;28;46116;-52
2023/02/20 00:41:20;;;;;;;;;48.25;39.25;;;;;;;;4960097;28;45286;-52
2023/02/20 00:43:46;;;;;;;;;46.25;37.75;;;;;;;;4960463;28;45358;-52
2023/02/20 00:46:11;;;;;;;;;48.25;37.50;;;;;;;;4960136;28;45421;-51
2023/02/20 00:48:37;;;;;;;;;45.75;39.25;;;;;;;;4960125;28;46267;-50
2023/02/20 00:51:02;;;;;;;;;43.50;33.75;;;;;;;;4960987;28;45420;-54
2023/02/20 00:53:27;;;;;;;;;40.75;35.25;;;;;;;;4963450;28;45556;-50
2023/02/20 00:55:52;;;;;;;;;40.75;35.50;;;;;;;;4962837;28;45337;-53
2023/02/20 00:58:17;;;;;;;;;43.50;38.50;;;;;;;;4963298;28;46055;-52
2023/02/20 01:00:43;;;;;;;;;47.00;37.25;;;;;;;;4963453;28;45311;-53
2023/02/20 01:03:08;;;;;;;;;43.25;37.00;;;;;;;;4963594;28;45353;-52
2023/02/20 01:05:33;;;;;;;;;50.75;40.00;;;;;;;;4963277;28;45322;-50
2023/02/20 01:07:58;;;;;;;;;51.75;39.00;;;;;;;;4963383;28;45432;-49
2023/02/20 01:10:23;;;;;;;;;50.25;40.50;;;;;;;;4963156;28;46617;-52
2023/02/20 01:12:49;;;;;;;;;50.75;40.50;;;;;;;;4963388;28;45442;-53
2023/02/20 01:15:14;;;;;;;;;49.25;39.25;;;;;;;;4963334;28;45159;-50
2023/02/20 01:17:39;;;;;;;;;47.25;38.75;;;;;;;;4963135;28;46023;-53
2023/02/20 01:20:06;;;;;;;;;54.00;42.50;;;;;;;;4963312;28;45373;-53
2023/02/20 01:22:31;;;;;;;;;44.25;37.75;;;;;;;;4963294;28;45448;-50
2023/02/20 01:24:56;;;;;;;;;47.75;38.00;;;;;;;;4962770;28;45426;-51
2023/02/20 01:27:21;;;;;;;;;48.25;39.50;;;;;;;;4962803;28;45641;-50
2023/02/20 01:29:46;;;;;;;;;44.00;37.00;;;;;;;;4963017;28;45318;-52
2023/02/20 05:31:37;;;;;;;;;21.67;20.00;;;;;;;;5429502;22;45276;-59
2023/02/20 05:34:02;;;;;;;;;25.67;21.67;;;;;;;;5020341;28;46169;-59
2023/02/20 05:36:28;;;;;;;;;23.67;19.33;;;;;;;;5021817;28;45345;-58
2023/02/20 05:38:53;;;;;;;;;27.00;22.00;;;;;;;;5022203;28;45453;-58
2023/02/20 05:41:18;;;;;;;;;24.67;20.00;;;;;;;;5021453;28;45549;-59
2023/02/20 05:43:44;;;;;;;;;27.67;20.33;;;;;;;;5021862;28;46557;-59
2023/02/20 05:46:10;;;;;;;;;25.33;22.67;;;;;;;;5021780;28;45293;-59
2023/02/20 05:48:35;;;;;;;;;28.67;22.67;;;;;;;;5021485;28;45318;-59
2023/02/20 05:51:00;;;;;;;;;22.33;22.00;;;;;;;;5020757;28;45473;-59
2023/02/20 05:53:29;;;;;;;;;29.67;24.00;;;;;;;;5021477;28;45526;-57
2023/02/20 05:55:55;;;;;;;;;21.33;20.67;;;;;;;;5021166;28;45368;-58
2023/02/20 05:58:20;;;;;;;;;29.67;25.67;;;;;;;;5021537;28;45379;-59
2023/02/20 06:00:45;;;;;;;;;24.33;22.00;;;;;;;;5020625;28;45564;-58
2023/02/20 06:03:10;;;;;;;;;29.33;24.33;;;;;;;;5021279;28;46439;-59
2023/02/20 06:05:35;;;;;;;;;32.67;26.33;;;;;;;;5021492;28;45363;-59
2023/02/20 06:08:01;;;;;;;;;34.67;29.33;;;;;;;;5020610;28;45412;-59
2023/02/20 06:10:26;;;;;;;;;27.00;24.00;;;;;;;;5020992;28;45430;-59
2023/02/20 06:12:51;;;;;;;;;30.00;26.00;;;;;;;;5021054;28;45704;-58
2023/02/20 06:15:16;;;;;;;;;33.33;27.33;;;;;;;;5021120;28;45458;-58
2023/02/20 06:17:42;;;;;;;;;31.50;27.00;;;;;;;;5021357;28;45390;-58
2023/02/20 06:20:07;;;;;;;;;29.50;27.00;;;;;;;;5020985;28;45343;-59
2023/02/20 06:22:32;;;;;;;;;40.00;28.33;;;;;;;;5019712;28;45685;-59
2023/02/20 06:24:57;;;;;;;;;27.00;26.00;;;;;;;;5020752;28;45396;-58
2023/02/20 06:27:23;;;;;;;;;38.25;31.25;;;;;;;;5021386;28;45481;-59
2023/02/20 06:29:48;;;;;;;;;38.00;27.75;;;;;;;;5020757;28;45355;-60
2023/02/20 06:32:13;;;;;;;;;35.50;33.25;;;;;;;;5020723;28;46870;-58
2023/02/20 06:34:38;;;;;;;;;50.00;36.25;;;;;;;;5020813;28;45490;-58
2023/02/20 06:37:04;;;;;;;;;44.00;33.50;;;;;;;;5020964;28;45549;-58
2023/02/20 06:39:30;;;;;;;;;38.25;32.75;;;;;;;;5020418;28;45470;-58
2023/02/20 06:41:55;;;;;;;;;47.25;35.00;;;;;;;;5020262;28;45661;-58
2023/02/20 06:44:20;;;;;;;;;37.25;34.00;;;;;;;;5020760;28;45515;-58
2023/02/20 06:46:46;;;;;;;;;38.00;26.25;;;;;;;;5019268;28;45620;-58
2023/02/20 06:49:11;;;;;;;;;42.25;31.50;;;;;;;;5018602;28;45360;-58
2023/02/20 06:51:36;;;;;;;;;42.00;30.33;;;;;;;;5019307;28;45465;-58
2023/02/20 06:54:02;;;;;;;;;35.25;31.50;;;;;;;;5020348;28;45277;-58
2023/02/20 06:56:29;;;;;;;;;42.50;32.75;;;;;;;;5020481;28;45501;-58
2023/02/20 06:58:55;;;;;;;;;40.50;30.50;;;;;;;;5020294;28;45489;-58
2023/02/20 07:01:21;;;;;;;;;37.00;32.25;;;;;;;;5020130;28;45822;-58
2023/02/20 07:03:52;;;;;;;;;50.00;35.00;;;;;;;;5020109;28;45492;-58
2023/02/20 07:06:17;;;;;;;;;34.75;32.25;;;;;;;;5020632;28;45349;-58
2023/02/20 07:08:42;;;;;;;;;39.25;30.00;;;;;;;;5019983;28;45428;-58
2023/02/20 07:11:08;;;;;;;;;41.50;35.25;;;;;;;;5020032;28;45400;-58
2023/02/20 07:13:33;;;;;;;;;38.00;32.00;;;;;;;;5019348;28;45241;-58
2023/02/20 07:15:58;;;;;;;;;41.50;34.75;;;;;;;;5020362;28;45486;-58
2023/02/20 07:18:26;;;;;;;;;40.25;31.00;;;;;;;;5020284;28;45292;-58
2023/02/20 07:20:51;;;;;;;;;33.00;28.00;;;;;;;;5020103;28;45467;-58
2023/02/20 07:23:16;;;;;;;;;33.67;27.67;;;;;;;;5018157;28;45277;-58
2023/02/20 07:25:42;;;;;;;;;29.33;25.00;;;;;;;;5020007;28;45439;-58
2023/02/20 07:28:07;;;;;;;;;35.50;28.25;;;;;;;;5019992;28;45422;-58
2023/02/20 07:30:32;;;;;;;;;33.33;26.00;;;;;;;;5019893;28;46280;-58
2023/02/20 07:32:58;;;;;;;;;24.67;21.67;;;;;;;;5019089;28;45423;-57
2023/02/20 07:35:23;;;;;;;;;31.00;26.00;;;;;;;;5020036;28;45426;-57
2023/02/20 07:37:48;;;;;;;;;32.00;28.00;;;;;;;;5019756;28;45660;-58
2023/02/20 07:40:13;;;;;;;;;30.33;25.00;;;;;;;;5019612;28;45475;-57
2023/02/20 07:42:38;;;;;;;;;34.00;26.33;;;;;;;;5019076;28;45387;-58
2023/02/20 07:45:04;;;;;;;;;27.67;22.00;;;;;;;;5018861;28;45534;-57
2023/02/20 07:47:29;;;;;;;;;25.67;22.00;;;;;;;;5019851;28;45408;-57
2023/02/20 07:49:54;;;;;;;;;30.00;27.00;;;;;;;;5018443;28;46176;-57
2023/02/20 07:52:19;;;;;;;;;25.33;22.33;;;;;;;;5019510;28;45724;-57
2023/02/20 07:54:44;;;;;;;;;24.00;23.00;;;;;;;;5019462;28;45363;-58
2023/02/20 07:57:10;;;;;;;;;33.67;23.00;;;;;;;;5019865;28;45572;-57
2023/02/20 07:59:35;;;;;;;;;24.33;22.00;;;;;;;;5019195;28;46310;-58
2023/02/20 08:02:00;;;;;;;;;27.00;22.67;;;;;;;;5018796;28;45495;-58
2023/02/20 08:04:26;;;;;;;;;28.33;24.00;;;;;;;;5019808;28;45510;-57
2023/02/20 08:06:51;;;;;;;;;27.33;22.00;;;;;;;;5013271;28;45294;-57
2023/02/20 08:09:17;;;;;;;;;28.33;26.33;;;;;;;;5019003;28;46423;-58
2023/02/20 08:11:42;;;;;;;;;32.33;28.67;;;;;;;;5018472;28;45453;-58
2023/02/20 08:14:07;;;;;;;;;32.00;29.00;;;;;;;;5018139;28;45260;-57
2023/02/20 08:16:32;;;;;;;;;32.00;25.25;;;;;;;;5018032;28;45649;-57
2023/02/20 08:18:58;;;;;;;;;33.33;28.00;;;;;;;;5019059;28;45567;-58
2023/02/20 08:21:23;;;;;;;;;34.33;27.33;;;;;;;;5019140;28;45501;-58
2023/02/20 08:23:48;;;;;;;;;30.33;28.33;;;;;;;;5019785;28;45339;-57
2023/02/20 08:26:13;;;;;;;;;31.00;27.67;;;;;;;;5018643;28;45498;-57
2023/02/20 08:28:39;;;;;;;;;31.67;30.33;;;;;;;;5017931;28;45377;-57
2023/02/20 08:31:05;;;;;;;;;32.67;25.33;;;;;;;;5018959;28;45463;-57
2023/02/20 08:33:30;;;;;;;;;26.67;24.67;;;;;;;;5019230;28;45398;-57
2023/02/20 08:35:56;;;;;;;;;30.67;26.67;;;;;;;;5019452;28;45506;-57
2023/02/20 08:38:24;;;;;;;;;29.00;25.00;;;;;;;;5019276;28;45601;-57
2023/02/20 08:40:49;;;;;;;;;32.67;26.67;;;;;;;;5018821;28;45390;-58
2023/02/20 08:43:14;;;;;;;;;25.00;25.00;;;;;;;;5018938;28;45375;-57
2023/02/20 08:45:40;;;;;;;;;24.00;23.00;;;;;;;;5019046;28;45467;-58
2023/02/20 08:48:05;;;;;;;;;28.67;20.67;;;;;;;;5019076;28;45437;-57
2023/02/20 08:50:30;;;;;;;;;28.67;25.67;;;;;;;;5018927;28;45405;-57
2023/02/20 08:52:55;;;;;;;;;29.00;24.00;;;;;;;;5019168;28;45395;-57
2023/02/20 08:55:21;;;;;;;;;18.33;18.33;;;;;;;;5018845;28;45531;-57
2023/02/20 08:57:46;;;;;;;;;26.67;25.33;;;;;;;;5018639;28;46299;-58
2023/02/20 09:00:12;;;;;;;;;29.00;25.00;;;;;;;;5018603;28;45347;-57
2023/02/20 09:02:38;;;;;;;;;24.00;20.67;;;;;;;;5018922;28;45185;-58
2023/02/20 09:05:03;;;;;;;;;25.33;23.00;;;;;;;;5018838;28;45499;-57
2023/02/20 09:07:28;;;;;;;;;29.33;25.67;;;;;;;;5017512;28;48276;-57
2023/02/20 09:09:54;;;;;;;;;26.00;24.67;;;;;;;;5017914;28;45424;-57
2023/02/20 09:12:19;;;;;;;;;29.00;24.67;;;;;;;;5020050;28;45443;-57
2023/02/20 09:14:45;;;;;;;;;22.00;19.00;;;;;;;;5021512;28;45566;-57
2023/02/20 09:17:10;;;;;;;;;32.33;22.33;;;;;;;;5021893;28;46205;-58
2023/02/20 09:19:35;;;;;;;;;29.67;27.00;;;;;;;;5022029;28;45347;-57
2023/02/20 09:22:00;;;;;;;;;21.67;19.00;;;;;;;;5022157;28;45284;-57
2023/02/20 09:24:30;;;;;;;;;29.33;22.67;;;;;;;;5022273;28;45340;-57
2023/02/20 09:26:56;;;;;;;;;18.67;15.00;;;;;;;;5053303;28;47800;-57
2023/02/20 09:29:21;;;;;;;;;27.67;21.67;;;;;;;;5021611;28;45354;-57
2023/02/20 09:31:46;;;;;;;;;31.33;26.00;;;;;;;;5022272;28;45476;-57
2023/02/20 09:34:11;;;;;;;;;27.67;25.33;;;;;;;;5021746;28;45523;-58
2023/02/20 09:36:36;;;;;;;;;27.33;26.00;;;;;;;;5021951;28;46502;-57
2023/02/20 09:39:02;;;;;;;;;29.00;26.33;;;;;;;;5021887;28;45268;-57
2023/02/20 09:41:39;;;;;;;;;35.67;27.67;;;;;;;;5021764;28;45348;-57
2023/02/20 09:44:23;;;;;;;;;29.33;26.67;;;;;;;;5022161;28;45490;-57
2023/02/20 09:46:51;;;;;;;;;30.67;27.00;;;;;;;;5021652;28;46482;-58
2023/02/20 09:49:26;;;;;;;;;23.33;19.33;;;;;;;;5022710;28;45374;-57
2023/02/20 09:51:53;;;;;;;;;26.67;26.67;;;;;;;;5026665;28;45422;-57
2023/02/20 09:54:32;;;;;;;;;29.33;23.33;;;;;;;;5021534;28;45385;-57
2023/02/20 09:57:02;;;;;;;;;23.00;23.00;;;;;;;;5021212;28;46777;-58
2023/02/20 09:59:31;;;;;;;;;35.00;25.67;;;;;;;;5021464;28;45404;-58
2023/02/20 10:02:00;;;;;;;;;33.00;19.67;;;;;;;;5021224;28;45346;-58
2023/02/20 10:04:49;;;;;;;;;28.33;25.00;;;;;;;;5021555;28;45644;-58
2023/02/20 10:07:20;;;;;;;;;22.67;20.67;;;;;;;;5021338;28;45593;-58
2023/02/20 10:09:45;;;;;;;;;26.67;23.33;;;;;;;;5021381;28;45407;-58
2023/02/20 10:12:29;;;;;;;;;26.33;23.33;;;;;;;;5022160;28;45386;-58
2023/02/20 10:15:13;;;;;;;;;26.00;21.67;;;;;;;;5019329;28;45331;-58
2023/02/20 10:17:57;;;;;;;;;30.00;25.00;;;;;;;;5021251;28;47342;-58
2023/02/20 10:20:34;;;;;;;;;34.67;28.67;;;;;;;;5019798;28;45386;-58
2023/02/20 10:23:14;;;;;;;;;30.67;30.33;;;;;;;;5019594;28;45213;-58
2023/02/20 10:25:42;;;;;;;;;30.00;27.00;;;;;;;;5020405;28;45407;-58
2023/02/20 10:28:09;;;;;;;;;34.67;26.67;;;;;;;;5019583;28;46803;-58
2023/02/20 10:30:35;;;;;;;;;21.33;19.00;;;;;;;;5020264;28;45356;-58
2023/02/20 10:33:18;;;;;;;;;31.00;28.00;;;;;;;;5020185;28;45608;-58
2023/02/20 10:35:59;;;;;;;;;25.00;23.33;;;;;;;;5033516;28;45693;-58
2023/02/20 10:38:26;;;;;;;;;27.33;24.33;;;;;;;;5020291;28;46253;-58
2023/02/20 10:40:56;;;;;;;;;25.00;21.33;;;;;;;;5020404;28;45454;-58
2023/02/20 10:43:33;;;;;;;;;24.67;24.00;;;;;;;;5020403;28;45494;-58
2023/02/20 10:46:19;;;;;;;;;26.67;20.33;;;;;;;;5013735;28;45352;-58
2023/02/20 10:48:46;;;;;;;;;17.67;17.67;;;;;;;;5020509;28;45380;-58
2023/02/20 10:51:31;;;;;;;;;21.00;19.00;;;;;;;;5019645;28;45447;-58
2023/02/20 10:54:17;;;;;;;;;21.33;20.00;;;;;;;;5008669;28;45428;-58
2023/02/20 10:57:18;;;;;;;;;22.33;20.33;;;;;;;;5011837;28;45296;-58
2023/02/20 10:59:46;;;;;;;;;20.67;17.67;;;;;;;;5012526;28;45597;-58
2023/02/20 11:02:17;;;;;;;;;24.33;20.67;;;;;;;;5020102;28;45188;-58
2023/02/20 11:04:46;;;;;;;;;23.00;20.00;;;;;;;;5019923;28;45486;-58
2023/02/20 11:07:17;;;;;;;;;32.67;22.67;;;;;;;;5020531;28;45225;-58
2023/02/20 11:09:42;;;;;;;;;23.33;22.67;;;;;;;;5020153;28;45498;-58
2023/02/20 11:12:17;;;;;;;;;21.33;18.33;;;;;;;;5019302;28;45378;-58
2023/02/20 11:14:45;;;;;;;;;28.33;23.00;;;;;;;;5020890;28;45445;-58
2023/02/20 11:17:15;;;;;;;;;19.33;19.00;;;;;;;;5020560;28;46057;-58
2023/02/20 11:19:42;;;;;;;;;14.33;11.67;;;;;;;;5020233;28;45289;-58
2023/02/20 11:22:08;;;;;;;;;21.33;21.33;;;;;;;;5020471;28;45383;-58
2023/02/20 11:24:37;;;;;;;;;22.33;17.67;;;;;;;;5020093;28;45373;-58
2023/02/20 11:27:09;;;;;;;;;21.33;19.00;;;;;;;;5019208;28;45494;-58
2023/02/20 11:29:37;;;;;;;;;22.33;19.67;;;;;;;;5018573;28;48273;-58
2023/02/20 11:32:34;;;;;;;;;25.00;21.67;;;;;;;;5019945;28;45491;-58
2023/02/20 11:35:12;;;;;;;;;23.67;21.00;;;;;;;;5014667;28;45643;-58
2023/02/20 11:37:37;;;;;;;;;18.67;18.00;;;;;;;;5019124;28;45420;-58
2023/02/20 11:40:02;;;;;;;;;21.00;20.00;;;;;;;;5019914;28;47407;-58
2023/02/20 11:42:34;;;;;;;;;25.33;21.00;;;;;;;;5020037;28;45433;-58
2023/02/20 11:45:10;;;;;;;;;20.67;18.67;;;;;;;;5019879;28;45387;-58
2023/02/20 11:47:37;;;;;;;;;22.00;18.00;;;;;;;;5019882;28;45535;-58
2023/02/20 11:50:08;;;;;;;;;21.00;17.67;;;;;;;;5019712;28;45503;-58
2023/02/20 11:52:33;;;;;;;;;21.33;19.00;;;;;;;;5020027;28;45321;-58
2023/02/20 11:55:09;;;;;;;;;21.00;20.00;;;;;;;;5019791;28;45426;-58
2023/02/20 11:57:37;;;;;;;;;17.33;17.33;;;;;;;;5020124;28;45526;-58
2023/02/20 12:00:11;;;;;;;;;11.67;10.00;;;;;;;;5020397;28;45789;-58
2023/02/20 12:02:46;;;;;;;;;23.33;18.00;;;;;;;;5019502;28;45443;-58
2023/02/20 12:05:13;;;;;;;;;22.00;19.33;;;;;;;;5019836;28;45454;-58
2023/02/20 12:07:40;;;;;;;;;22.00;19.33;;;;;;;;5019695;28;45735;-58
2023/02/20 12:10:08;;;;;;;;;17.67;16.67;;;;;;;;5018227;28;46167;-58
2023/02/20 12:12:34;;;;;;;;;23.67;17.67;;;;;;;;5018085;28;45407;-58
2023/02/20 12:15:01;;;;;;;;;22.67;21.67;;;;;;;;5019579;28;45312;-58
2023/02/20 12:17:47;;;;;;;;;17.67;17.33;;;;;;;;5019826;28;45395;-58
2023/02/20 12:20:18;;;;;;;;;20.00;18.00;;;;;;;;5019543;28;45434;-58
2023/02/20 12:23:03;;;;;;;;;20.67;18.33;;;;;;;;5019652;28;45379;-58
2023/02/20 12:25:55;;;;;;;;;17.00;16.00;;;;;;;;5017755;28;45484;-58
2023/02/20 12:28:26;;;;;;;;;16.67;16.67;;;;;;;;5019622;28;45340;-58
2023/02/20 12:31:01;;;;;;;;;21.33;17.33;;;;;;;;5019320;28;46118;-58
2023/02/20 12:33:38;;;;;;;;;18.67;18.00;;;;;;;;5019464;28;45186;-58
2023/02/20 12:36:19;;;;;;;;;19.67;19.33;;;;;;;;5019184;28;45352;-58
2023/02/20 12:38:45;;;;;;;;;23.00;20.00;;;;;;;;5019717;28;45342;-58
2023/02/20 12:41:15;;;;;;;;;16.00;16.00;;;;;;;;5019123;28;45783;-59
2023/02/20 12:43:59;;;;;;;;;21.00;17.00;;;;;;;;5018965;28;45426;-59
2023/02/20 12:46:30;;;;;;;;;19.33;18.67;;;;;;;;5019416;28;45324;-59
2023/02/20 12:49:14;;;;;;;;;18.33;18.33;;;;;;;;5022802;28;45520;-59
2023/02/20 12:51:42;;;;;;;;;19.00;18.67;;;;;;;;5010404;28;45901;-59
2023/02/20 12:54:16;;;;;;;;;23.00;20.33;;;;;;;;5021187;28;45426;-59
2023/02/20 12:57:00;;;;;;;;;16.67;15.67;;;;;;;;5022759;28;45395;-59
2023/02/20 12:59:25;;;;;;;;;24.67;21.33;;;;;;;;5020821;28;45283;-59
2023/02/20 13:01:51;;;;;;;;;20.50;17.00;;;;;;;;5022564;28;46535;-59
2023/02/20 13:04:46;;;;;;;;;18.00;17.00;;;;;;;;5004620;28;45361;-59
2023/02/20 13:07:23;;;;;;;;;19.67;18.00;;;;;;;;5022125;28;45372;-59
2023/02/20 13:09:55;;;;;;;;;16.67;15.67;;;;;;;;5022445;28;45522;-59
2023/02/20 13:12:21;;;;;;;;;23.33;21.00;;;;;;;;5022440;28;45362;-59
2023/02/20 13:14:49;;;;;;;;;20.67;19.00;;;;;;;;5022469;28;45232;-59
2023/02/20 13:17:28;;;;;;;;;15.33;15.33;;;;;;;;5021322;28;45405;-59
2023/02/20 13:19:56;;;;;;;;;14.33;13.67;;;;;;;;5022462;28;45494;-59
2023/02/20 13:22:22;;;;;;;;;20.00;16.67;;;;;;;;5022121;28;45477;-59
2023/02/20 13:24:47;;;;;;;;;18.00;15.00;;;;;;;;5022206;28;45389;-59
2023/02/20 13:27:31;;;;;;;;;19.33;17.33;;;;;;;;5022506;28;45359;-59
2023/02/20 13:29:59;;;;;;;;;22.67;17.00;;;;;;;;5021079;28;45293;-59
2023/02/20 13:32:27;;;;;;;;;19.00;18.00;;;;;;;;5021900;28;46192;-59
2023/02/20 13:34:55;;;;;;;;;17.00;13.33;;;;;;;;5020749;28;45643;-59
2023/02/20 13:37:32;;;;;;;;;20.00;16.33;;;;;;;;5022043;28;45292;-59
2023/02/20 13:40:18;;;;;;;;;24.00;20.00;;;;;;;;5021807;28;45391;-59
2023/02/20 13:42:43;;;;;;;;;24.00;21.00;;;;;;;;5021669;28;45386;-59
2023/02/20 13:45:28;;;;;;;;;17.67;16.67;;;;;;;;5021894;28;45453;-59
2023/02/20 13:48:13;;;;;;;;;22.67;20.67;;;;;;;;5021767;28;45426;-59
2023/02/20 13:50:38;;;;;;;;;22.33;18.33;;;;;;;;5021657;28;45470;-59
2023/02/20 13:53:04;;;;;;;;;23.33;20.00;;;;;;;;5021495;28;45515;-59
2023/02/20 13:55:31;;;;;;;;;21.33;19.33;;;;;;;;5020085;28;45368;-59
2023/02/20 13:58:01;;;;;;;;;19.00;17.00;;;;;;;;5020858;28;45370;-58
2023/02/20 14:00:47;;;;;;;;;23.00;20.00;;;;;;;;5021454;28;45423;-59
2023/02/20 14:03:20;;;;;;;;;24.67;22.33;;;;;;;;5020194;28;47553;-59
2023/02/20 14:05:59;;;;;;;;;19.00;17.00;;;;;;;;5021558;28;45319;-59
2023/02/20 14:08:24;;;;;;;;;17.33;15.67;;;;;;;;5021823;28;45450;-59
2023/02/20 14:10:49;;;;;;;;;21.33;19.33;;;;;;;;5021487;28;45539;-59
2023/02/20 14:13:18;;;;;;;;;19.00;19.00;;;;;;;;5021412;28;46217;-59
2023/02/20 14:15:54;;;;;;;;;16.33;16.33;;;;;;;;5021352;28;45347;-59
2023/02/20 14:18:19;;;;;;;;;16.00;16.00;;;;;;;;5020173;28;45391;-58
2023/02/20 14:20:44;;;;;;;;;16.00;16.00;;;;;;;;5021375;28;45719;-58
2023/02/20 14:23:28;;;;;;;;;15.00;15.00;;;;;;;;5021378;28;46561;-59
2023/02/20 14:25:56;;;;;;;;;16.00;15.33;;;;;;;;5021036;28;45462;-58
2023/02/20 14:28:21;;;;;;;;;18.33;16.33;;;;;;;;5021168;28;45350;-58
2023/02/20 14:31:01;;;;;;;;;19.67;15.00;;;;;;;;5021077;28;45423;-58
2023/02/20 14:33:28;;;;;;;;;13.67;13.67;;;;;;;;5020872;28;45628;-58
2023/02/20 14:35:53;;;;;;;;;24.00;22.00;;;;;;;;5020966;28;45410;-58
2023/02/20 14:38:23;;;;;;;;;17.33;17.33;;;;;;;;5019782;28;45512;-58
2023/02/20 14:40:49;;;;;;;;;15.67;15.00;;;;;;;;5020900;28;45338;-58
2023/02/20 14:43:15;;;;;;;;;17.00;15.00;;;;;;;;5020751;28;46370;-58
2023/02/20 14:45:40;;;;;;;;;18.67;16.00;;;;;;;;5019554;28;45265;-58
2023/02/20 14:48:19;;;;;;;;;18.67;16.67;;;;;;;;5020890;28;45337;-58
2023/02/20 14:50:44;;;;;;;;;15.67;15.67;;;;;;;;5020945;28;45434;-58
2023/02/20 14:53:17;;;;;;;;;17.67;14.67;;;;;;;;5020727;28;45500;-58
2023/02/20 14:55:42;;;;;;;;;15.33;14.67;;;;;;;;5020478;28;45383;-58
2023/02/20 14:58:12;;;;;;;;;20.00;17.00;;;;;;;;5020776;28;45368;-58
2023/02/20 15:00:38;;;;;;;;;15.00;14.33;;;;;;;;5019310;28;45527;-58
2023/02/20 15:03:17;;;;;;;;;18.00;17.00;;;;;;;;5019187;28;46546;-58
2023/02/20 15:05:43;;;;;;;;;18.67;13.33;;;;;;;;5020365;28;45458;-58
2023/02/20 15:08:11;;;;;;;;;15.33;14.00;;;;;;;;5020813;28;45304;-58
2023/02/20 15:10:38;;;;;;;;;15.67;14.00;;;;;;;;5019661;28;45487;-58
2023/02/20 15:13:11;;;;;;;;;16.00;16.00;;;;;;;;5020304;28;45451;-58
2023/02/20 15:15:37;;;;;;;;;18.67;14.00;;;;;;;;5020310;28;45367;-58
2023/02/20 15:18:12;;;;;;;;;15.00;15.00;;;;;;;;5020500;28;45473;-58
2023/02/20 15:20:40;;;;;;;;;21.00;20.00;;;;;;;;5020427;28;45592;-58
2023/02/20 15:23:09;;;;;;;;;17.00;15.33;;;;;;;;5018930;28;46123;-58
2023/02/20 15:25:35;;;;;;;;;15.00;15.00;;;;;;;;5019957;28;45221;-58
2023/02/20 15:28:15;;;;;;;;;18.33;14.67;;;;;;;;5020532;28;45509;-58
2023/02/20 15:31:04;;;;;;;;;16.00;14.00;;;;;;;;5020125;28;45451;-57
2023/02/20 15:33:30;;;;;;;;;17.00;16.33;;;;;;;;5019318;28;46012;-58
2023/02/20 15:35:55;;;;;;;;;25.00;24.67;;;;;;;;5020145;28;45351;-57
2023/02/20 15:38:22;;;;;;;;;21.00;18.33;;;;;;;;5020241;28;45221;-60
2023/02/20 15:40:47;;;;;;;;;19.67;17.33;;;;;;;;5019631;28;45282;-57
2023/02/20 15:43:13;;;;;;;;;18.33;16.67;;;;;;;;5018519;28;46043;-58
2023/02/20 15:45:38;;;;;;;;;20.00;17.00;;;;;;;;5020111;28;45414;-58
2023/02/20 15:48:04;;;;;;;;;17.00;15.67;;;;;;;;5019899;28;45437;-59
2023/02/20 15:50:30;;;;;;;;;22.00;17.67;;;;;;;;5019987;28;45510;-59
2023/02/20 15:52:57;;;;;;;;;13.00;13.00;;;;;;;;5019753;28;45530;-59
2023/02/20 15:55:23;;;;;;;;;19.67;18.33;;;;;;;;5019827;28;45428;-59
2023/02/20 15:57:49;;;;;;;;;18.67;17.67;;;;;;;;5018325;28;45444;-59
2023/02/20 16:00:19;;;;;;;;;17.67;17.67;;;;;;;;5020060;28;45351;-59
2023/02/20 16:02:44;;;;;;;;;18.33;15.67;;;;;;;;5019656;28;45458;-59
2023/02/20 16:05:09;;;;;;;;;17.00;16.00;;;;;;;;5020036;28;45459;-59
2023/02/20 16:07:34;;;;;;;;;14.00;13.67;;;;;;;;5019750;28;45389;-59
2023/02/20 16:09:59;;;;;;;;;19.67;17.33;;;;;;;;5019447;28;45468;-59
2023/02/20 16:12:26;;;;;;;;;19.33;16.33;;;;;;;;5019319;28;46546;-59
2023/02/20 16:14:52;;;;;;;;;17.00;17.00;;;;;;;;5019704;28;45464;-59
2023/02/20 16:17:25;;;;;;;;;20.67;17.67;;;;;;;;5018419;28;45390;-59
2023/02/20 16:19:50;;;;;;;;;17.00;15.00;;;;;;;;5019549;28;45493;-59
2023/02/20 16:22:16;;;;;;;;;20.33;17.33;;;;;;;;5020639;28;46337;-59
2023/02/20 16:24:43;;;;;;;;;20.33;16.67;;;;;;;;5022849;28;45431;-58
2023/02/20 16:27:20;;;;;;;;;20.67;17.33;;;;;;;;5023130;28;45458;-59
2023/02/20 16:29:45;;;;;;;;;19.33;15.00;;;;;;;;5022850;28;45368;-58
2023/02/20 16:32:14;;;;;;;;;19.33;16.00;;;;;;;;5021324;28;48025;-58
2023/02/20 16:34:40;;;;;;;;;16.67;15.67;;;;;;;;5022632;28;45482;-58
2023/02/20 16:37:08;;;;;;;;;17.67;17.67;;;;;;;;5022762;28;45450;-59
2023/02/20 16:39:33;;;;;;;;;20.33;16.67;;;;;;;;5021226;28;45296;-59
2023/02/20 16:41:58;;;;;;;;;21.67;20.33;;;;;;;;5022737;28;45662;-58
2023/02/20 16:44:23;;;;;;;;;18.67;18.67;;;;;;;;5022768;28;45308;-58
2023/02/20 16:46:49;;;;;;;;;21.67;16.00;;;;;;;;5022968;28;45537;-58
2023/02/20 16:49:14;;;;;;;;;22.00;19.00;;;;;;;;5022596;28;45285;-59
2023/02/20 16:51:44;;;;;;;;;18.67;16.00;;;;;;;;5022460;28;45428;-59
2023/02/20 16:54:09;;;;;;;;;20.33;20.33;;;;;;;;5021214;28;45511;-59
2023/02/20 16:56:35;;;;;;;;;20.00;19.00;;;;;;;;5021223;28;45506;-59
2023/02/20 16:59:01;;;;;;;;;30.00;22.33;;;;;;;;5022116;28;45400;-59
2023/02/20 17:01:26;;;;;;;;;18.00;16.00;;;;;;;;5022644;28;45538;-59
2023/02/20 17:03:52;;;;;;;;;21.33;17.33;;;;;;;;5022377;28;45356;-59
2023/02/20 17:06:19;;;;;;;;;21.67;19.00;;;;;;;;5022653;28;45197;-59
2023/02/20 17:08:44;;;;;;;;;20.33;20.00;;;;;;;;5022625;28;45538;-59
2023/02/20 17:11:10;;;;;;;;;23.00;20.00;;;;;;;;5022042;28;45273;-59
2023/02/20 17:13:35;;;;;;;;;18.67;18.33;;;;;;;;5022462;28;45254;-59
2023/02/20 17:16:00;;;;;;;;;22.33;19.33;;;;;;;;5022645;28;45506;-59
2023/02/20 17:18:25;;;;;;;;;20.33;19.67;;;;;;;;5022467;28;45330;-57
2023/02/20 17:20:50;;;;;;;;;23.00;21.00;;;;;;;;5021002;28;46972;-58
2023/02/20 17:23:16;;;;;;;;;21.67;21.00;;;;;;;;5022394;28;45312;-58
2023/02/20 17:25:41;;;;;;;;;19.33;19.33;;;;;;;;5022213;28;45577;-60
2023/02/20 17:28:06;;;;;;;;;22.00;22.00;;;;;;;;5022215;28;45504;-58
2023/02/20 17:30:31;;;;;;;;;24.00;21.00;;;;;;;;5021589;28;45340;-58
2023/02/20 17:32:57;;;;;;;;;26.67;21.33;;;;;;;;5021720;28;45386;-58
2023/02/20 17:35:22;;;;;;;;;21.33;18.67;;;;;;;;5021917;28;45553;-58
2023/02/20 17:37:48;;;;;;;;;27.00;23.00;;;;;;;;5022132;28;45324;-59
2023/02/20 17:40:14;;;;;;;;;28.67;25.00;;;;;;;;5020330;28;47239;-57
2023/02/20 17:42:39;;;;;;;;;28.67;25.67;;;;;;;;5021991;28;45270;-57
2023/02/20 17:45:05;;;;;;;;;28.67;27.33;;;;;;;;5021933;28;45388;-59
2023/02/20 17:47:32;;;;;;;;;42.67;33.33;;;;;;;;5021958;28;45404;-58
2023/02/20 17:49:57;;;;;;;;;26.00;26.00;;;;;;;;5021886;28;46223;-58
2023/02/20 17:52:23;;;;;;;;;30.67;29.00;;;;;;;;5021917;28;45429;-59
2023/02/20 17:54:49;;;;;;;;;23.33;21.33;;;;;;;;5021722;28;45494;-59
2023/02/20 17:57:17;;;;;;;;;25.67;24.67;;;;;;;;5021655;28;45569;-59
2023/02/20 17:59:42;;;;;;;;;28.00;27.67;;;;;;;;5040341;28;47436;-59
2023/02/20 18:02:09;;;;;;;;;29.00;25.00;;;;;;;;5021675;28;45471;-59
2023/02/20 18:04:35;;;;;;;;;26.33;23.67;;;;;;;;5021752;28;45506;-59
2023/02/20 18:07:00;;;;;;;;;26.33;24.00;;;;;;;;5021678;28;45344;-59
2023/02/20 18:09:26;;;;;;;;;28.67;26.00;;;;;;;;5021392;28;46208;-59
2023/02/20 18:11:51;;;;;;;;;29.67;26.33;;;;;;;;5021667;28;45359;-59
2023/02/20 18:14:16;;;;;;;;;26.00;25.67;;;;;;;;5021727;28;45399;-59
2023/02/20 18:16:42;;;;;;;;;25.33;21.33;;;;;;;;5021713;28;45331;-59
2023/02/20 18:19:12;;;;;;;;;33.67;29.00;;;;;;;;5021198;28;46284;-59
2023/02/20 18:21:40;;;;;;;;;29.67;26.00;;;;;;;;5021559;28;45831;-59